Etusivu
METAR-TAF:

METAR-TAF

Lentoasemat :

Caen, Ranska

Leveyspiiri: 49-11N, Pituuspiiri: 000-27W, korkeus merenpinnasta: 78 m

Tämänhetkinen sää

Tämä raportti tehtiin 40 minuuttia sitten, kello 03.00 UTC
Tuuli 5 kn lännestä/lounaasta
Lämpötila 7°C
Kosteus 93%
Ilmanpaine 1026 hPa
Näkyvyys 10 km tai enemmän
Muutamia pilviä 1400 ft:n korkeudessa
Pilvistä 3900 ft:n korkeudessa

METAR: LFRK 190300Z AUTO 24005KT 9999 FEW014 OVC039 07/06 Q1026

Aika: 04:40 (03:40 UTC)

Sääennuste

Tämä raportti tehtiin 9 tuntia ja 31 minuuttia sitten, kello 18.09 UTC
Ennuste voimassa 18. päivästä klo 18 UTC - 18. päivään klo 24 UTC
Tuuli 10 kn lännestä/luoteesta
Näkyvyys 10 km tai enemmän
Hajonneita pilviä 2500 ft:n korkeudessa
Ajoittain
18. päivästä klo 18 UTC - 18. päivään klo 20 UTC
Näkyvyys: 4000 m
Hajonneita pilviä 1500 ft:n korkeudessa, Kasvava cumulus-pilvi.
vesikuuroja

TAF: LFRK 181809Z 1818/1824 29010KT 9999 BKN025 TEMPO 1818/1820 4000 SHRA BKN015TCU

Säähavainnot ja -ennusteet yli 4000 lentoasemalta (METAR- ja TAF-raportit).

Käytössä olevat sääasemat on merkitty karttaan keltaisilla ja punaisilla pisteillä.

Aseta hiiri pisteen päälle nähdäksesi sääaseman nimen.

Klikkaa sitten nähdäksesi säähavainnot ja -ennusteet.

Kartan vaihtaminen: klikkaa mustalla rastilla varustettuja vihreitä pisteitä, niin voit zoomata sisään; viivalla varustettua vihreää pistettä, niin voit zoomata ulos tai vihreitä nuolia, niin pääset viereisille kartoille.


METAR-TAF: